Time;durP1;ratioP1;P1;durP2;ratioP2;P2;SDS_P1;SDS_P2;PMS_P1;PMS_P2;Temp;Humidity;BMP_temperature;BMP_pressure;BME280_temperature;BME280_humidity;BME280_pressure;Samples;Min_cycle;Max_cycle;Signal;HPM_P1;HPM_P2
2023/01/06 00:00:23;;;;;;;7.20;0.40;;;;;;;4.34;77.86;100754.89;102920;1306;25341;-58
2023/01/06 00:03:14;;;;;;;3.40;0.40;;;;;;;4.34;77.83;100753.80;102903;1284;24351;-59
2023/01/06 00:05:45;;;;;;;4.60;1.00;;;;;;;4.32;77.99;100751.94;102850;1290;22474;-59
2023/01/06 00:08:16;;;;;;;2.20;0.50;;;;;;;4.32;78.01;100755.34;102946;1274;25347;-61
2023/01/06 00:10:47;;;;;;;3.80;0.40;;;;;;;4.31;77.74;100763.65;103077;1274;24325;-57
2023/01/06 00:13:18;;;;;;;5.90;0.50;;;;;;;4.30;77.91;100761.30;103016;1305;24808;-58
2023/01/06 00:15:49;;;;;;;2.50;0.40;;;;;;;4.29;77.79;100762.80;102968;1305;24203;-60
2023/01/06 00:18:20;;;;;;;3.00;0.30;;;;;;;4.28;77.53;100759.91;102970;1281;22521;-61
2023/01/06 00:20:51;;;;;;;3.60;0.40;;;;;;;4.27;77.72;100764.83;102977;1305;24325;-58
2023/01/06 00:23:21;;;;;;;2.70;0.30;;;;;;;4.25;77.91;100764.55;102960;1306;24347;-60
2023/01/06 00:25:53;;;;;;;2.70;0.40;;;;;;;4.22;77.77;100764.13;102956;1305;24268;-57
2023/01/06 00:28:24;;;;;;;4.80;0.40;;;;;;;4.19;77.77;100765.14;103031;1299;22471;-59
2023/01/06 00:30:55;;;;;;;2.10;0.40;;;;;;;4.16;78.01;100771.42;102990;1305;24445;-57
2023/01/06 00:33:27;;;;;;;3.70;0.30;;;;;;;4.12;78.06;100775.77;102995;1305;24240;-59
2023/01/06 00:36:01;;;;;;;3.00;0.50;;;;;;;4.08;77.86;100777.96;102994;1305;25437;-58
2023/01/06 00:38:35;;;;;;;3.20;0.50;;;;;;;4.05;78.16;100779.02;103060;1303;22479;-59
2023/01/06 00:42:02;;;;;;;2.80;0.40;;;;;;;4.02;78.17;100783.51;103106;1282;22510;-59
2023/01/06 00:44:00;;;;;;;2.40;0.40;;;;;;;3.98;78.32;100783.90;102806;1281;207821;-57
2023/01/06 00:46:33;;;;;;;1.80;0.40;;;;;;;3.94;78.37;100788.95;103126;1297;22461;-59
2023/01/06 00:49:05;;;;;;;3.40;0.40;;;;;;;3.91;78.36;100798.13;103019;1305;22480;-60
2023/01/06 00:51:37;;;;;;;4.00;0.50;;;;;;;3.89;78.78;100805.59;103149;1278;22462;-59
2023/01/06 00:54:10;;;;;;;3.00;0.50;;;;;;;3.86;78.69;100806.44;102865;1291;22681;-58
2023/01/06 00:56:42;;;;;;;4.70;0.50;;;;;;;3.84;78.85;100810.26;102920;1281;23795;-58
2023/01/06 00:59:14;;;;;;;5.90;0.70;;;;;;;3.84;78.85;100814.45;103220;1305;22466;-58
2023/01/06 01:01:46;;;;;;;4.20;0.50;;;;;;;3.84;79.02;100818.23;103066;1273;25344;-61
2023/01/06 01:04:18;;;;;;;7.80;1.00;;;;;;;3.83;79.12;100825.73;102945;1282;24350;-58
2023/01/06 01:06:49;;;;;;;6.40;0.50;;;;;;;3.83;78.93;100827.24;103161;1305;22594;-59
2023/01/06 01:09:25;;;;;;;4.40;1.10;;;;;;;3.82;78.75;100829.00;102960;1281;24257;-59
2023/01/06 01:12:10;;;;;;;2.90;0.40;;;;;;;3.79;79.07;100827.86;102966;1281;25294;-58
2023/01/06 01:14:47;;;;;;;3.00;0.40;;;;;;;3.75;79.17;100831.55;102849;1284;22940;-59
2023/01/06 01:17:19;;;;;;;2.70;0.50;;;;;;;3.71;79.24;100835.88;103055;1274;22614;-60
2023/01/06 01:19:53;;;;;;;2.70;0.40;;;;;;;3.70;79.26;100839.69;102994;1284;24318;-58
2023/01/06 01:22:25;;;;;;;3.60;0.40;;;;;;;3.69;79.32;100838.36;102868;1305;22471;-59
2023/01/06 01:24:56;;;;;;;2.10;0.40;;;;;;;3.68;79.25;100838.46;103003;1281;24227;-56
2023/01/06 01:27:27;;;;;;;3.20;0.50;;;;;;;3.68;79.41;100844.92;102847;1277;25669;-58
2023/01/06 01:29:57;;;;;;;2.90;0.60;;;;;;;3.68;79.44;100846.74;102942;1305;22464;-60
2023/01/06 01:32:28;;;;;;;4.00;0.50;;;;;;;3.67;79.44;100849.90;102900;1305;22541;-58
2023/01/06 01:34:59;;;;;;;9.90;0.40;;;;;;;3.66;79.47;100843.84;102878;1297;26070;-61
2023/01/06 01:37:30;;;;;;;7.50;0.60;;;;;;;3.67;79.37;100849.20;102929;1281;22460;-58
2023/01/06 01:40:01;;;;;;;4.60;0.40;;;;;;;3.65;79.47;100850.08;102896;1281;22674;-61
2023/01/06 01:42:32;;;;;;;3.70;0.50;;;;;;;3.63;79.44;100851.22;102943;1281;22466;-59
2023/01/06 01:45:06;;;;;;;4.70;0.70;;;;;;;3.61;79.38;100851.48;102917;1274;22758;-57
2023/01/06 01:47:47;;;;;;;4.00;0.50;;;;;;;3.59;79.49;100854.77;102949;1281;22477;-56
2023/01/06 01:50:25;;;;;;;2.90;0.60;;;;;;;3.57;79.49;100864.72;103067;1274;24348;-59
2023/01/06 01:53:01;;;;;;;5.70;0.70;;;;;;;3.55;79.55;100869.48;103026;1305;22473;-57
2023/01/06 01:55:32;;;;;;;8.60;0.90;;;;;;;3.52;79.62;100870.39;102894;1280;22536;-59
2023/01/06 01:58:09;;;;;;;3.90;0.50;;;;;;;3.51;79.59;100872.14;103032;1302;22516;-58
2023/01/06 02:00:42;;;;;;;3.20;0.50;;;;;;;3.48;79.65;100876.84;102918;1281;22475;-57
2023/01/06 02:03:14;;;;;;;7.90;1.10;;;;;;;3.45;79.70;100871.59;103053;1281;22474;-57
2023/01/06 02:05:50;;;;;;;5.70;0.60;;;;;;;3.43;79.75;100875.96;103030;1274;22494;-58
2023/01/06 02:08:28;;;;;;;8.10;0.60;;;;;;;3.40;79.83;100880.20;102988;1281;22473;-57
2023/01/06 02:10:59;;;;;;;5.60;0.50;;;;;;;3.36;79.96;100881.66;102926;1281;25229;-56
2023/01/06 02:13:32;;;;;;;5.60;0.50;;;;;;;3.32;80.14;100883.21;102995;1281;22579;-59
2023/01/06 02:16:16;;;;;;;2.30;0.50;;;;;;;3.27;80.25;100874.51;103108;1306;22479;-59
2023/01/06 02:18:58;;;;;;;1.90;0.40;;;;;;;3.22;80.44;100873.16;103078;1281;24669;-62
2023/01/06 02:21:41;;;;;;;5.80;0.60;;;;;;;3.15;80.62;100873.48;103234;1281;24470;-59
2023/01/06 02:24:53;;;;;;;5.20;0.60;;;;;;;3.11;80.61;100877.88;102953;1290;22455;-60
2023/01/06 02:27:39;;;;;;;3.40;0.60;;;;;;;3.03;80.87;100874.11;102980;1281;24355;-59
2023/01/06 02:30:44;;;;;;;4.10;0.40;;;;;;;2.96;80.97;100872.61;103001;1305;26488;-57
2023/01/06 02:33:24;;;;;;;4.20;0.50;;;;;;;2.92;81.03;100873.69;102517;1287;25221;-58
2023/01/06 02:36:18;;;;;;;4.50;0.60;;;;;;;2.90;81.02;100873.95;102711;1283;24306;-59
2023/01/06 02:39:01;;;;;;;1.80;0.40;;;;;;;2.89;81.15;100869.16;102576;1286;25489;-60
2023/01/06 02:41:42;;;;;;;1.80;0.40;;;;;;;2.87;81.29;100872.40;102804;1280;26336;-56
2023/01/06 02:44:16;;;;;;;;;;;;;;;2.89;81.21;100876.17;102723;1293;24352;-59
2023/01/06 02:46:59;;;;;;;5.20;0.50;;;;;;;2.88;81.19;100878.71;102722;1286;22488;-59
2023/01/06 02:49:37;;;;;;;3.20;0.50;;;;;;;2.86;81.14;100873.36;102592;1310;27001;-59
2023/01/06 02:52:15;;;;;;;4.10;0.50;;;;;;;2.85;81.21;100869.13;102607;1287;22477;-58
2023/01/06 02:54:53;;;;;;;5.80;0.70;;;;;;;2.84;81.32;100874.02;102577;1296;23109;-58
2023/01/06 02:57:30;;;;;;;3.80;0.40;;;;;;;2.82;81.28;100868.92;102626;1309;22529;-60
2023/01/06 03:00:08;;;;;;;2.20;0.50;;;;;;;2.81;81.27;100872.32;102560;1280;22463;-58
2023/01/06 03:02:40;;;;;;;5.50;0.60;;;;;;;2.79;81.25;100871.71;102788;1297;25338;-56
2023/01/06 03:05:16;;;;;;;4.10;0.50;;;;;;;2.79;81.24;100868.25;102697;1294;24389;-58
2023/01/06 03:07:48;;;;;;;7.00;0.70;;;;;;;2.79;81.41;100866.92;102646;1287;25877;-59
2023/01/06 03:10:24;;;;;;;5.60;0.50;;;;;;;2.78;81.38;100864.40;102675;1286;22962;-58
2023/01/06 03:13:00;;;;;;;3.50;0.60;;;;;;;2.76;81.35;100871.04;103176;1273;26499;-58
2023/01/06 03:15:31;;;;;;;4.70;0.50;;;;;;;2.78;81.42;100864.16;102965;1275;22481;-57
2023/01/06 03:18:02;;;;;;;3.00;0.50;;;;;;;2.79;81.36;100864.31;102910;1280;25391;-58
2023/01/06 03:20:33;;;;;;;5.60;0.50;;;;;;;2.79;81.44;100862.42;103093;1281;22454;-59
2023/01/06 03:23:04;;;;;;;4.80;0.50;;;;;;;2.78;81.33;100869.91;103128;1280;22467;-60
2023/01/06 03:25:37;;;;;;;4.20;0.60;;;;;;;2.76;81.33;100873.33;102935;1281;25278;-58
2023/01/06 03:28:08;;;;;;;6.20;0.70;;;;;;;2.76;81.39;100875.05;103052;1280;25284;-59
2023/01/06 03:30:53;;;;;;;12.90;0.90;;;;;;;2.77;81.51;100877.98;102907;1300;22467;-56
2023/01/06 03:33:33;;;;;;;4.30;0.70;;;;;;;2.76;81.61;100874.90;103014;1274;24351;-58
2023/01/06 03:36:13;;;;;;;8.50;0.90;;;;;;;2.75;81.41;100884.23;102962;1280;24695;-58
2023/01/06 03:38:53;;;;;;;6.10;0.90;;;;;;;2.74;81.46;100884.61;103044;1297;24392;-59
2023/01/06 03:44:27;;;;;;;5.10;0.90;;;;;;;2.72;81.41;100886.90;102919;1305;22490;-58
2023/01/06 03:47:05;;;;;;;6.80;0.80;;;;;;;2.70;81.47;100890.88;106856;1281;23180;-59
2023/01/06 03:49:44;;;;;;;9.40;1.30;;;;;;;2.68;81.44;100887.35;105686;1286;22613;-57
2023/01/06 03:52:23;;;;;;;6.30;0.90;;;;;;;2.67;81.48;100895.02;102891;1280;25608;-60
2023/01/06 03:54:57;;;;;;;8.30;1.20;;;;;;;2.65;81.56;100886.98;103138;1302;22460;-59
2023/01/06 03:57:32;;;;;;;8.60;1.20;;;;;;;2.66;81.54;100884.05;103226;1274;23726;-56
2023/01/06 04:00:08;;;;;;;6.30;1.10;;;;;;;2.64;81.57;100885.20;102989;1281;22469;-60
2023/01/06 04:02:40;;;;;;;6.90;1.10;;;;;;;2.64;81.72;100883.61;103249;1305;22490;-59
2023/01/06 04:05:14;;;;;;;8.40;1.00;;;;;;;2.67;81.84;100884.45;103119;1281;22464;-58
2023/01/06 04:07:46;;;;;;;7.00;1.00;;;;;;;2.68;81.85;100880.02;103120;1281;24243;-59
2023/01/06 04:10:19;;;;;;;9.40;1.40;;;;;;;2.69;81.99;100876.86;103131;1305;22524;-58
2023/01/06 04:12:50;;;;;;;11.00;1.50;;;;;;;2.70;81.95;100879.77;103106;1304;24655;-58
2023/01/06 04:15:24;;;;;;;9.00;1.20;;;;;;;2.70;82.00;100878.35;103012;1274;22536;-58
2023/01/06 04:17:55;;;;;;;8.70;1.30;;;;;;;2.69;82.09;100877.04;102980;1305;24221;-58
2023/01/06 04:20:28;;;;;;;11.10;1.70;;;;;;;2.70;82.26;100875.35;103037;1281;24932;-59
2023/01/06 04:22:59;;;;;;;11.90;1.50;;;;;;;2.70;82.24;100870.63;103097;1281;24450;-58
2023/01/06 04:25:30;;;;;;;10.60;2.00;;;;;;;2.71;82.29;100866.05;103120;1291;22469;-59
2023/01/06 04:28:01;;;;;;;10.00;1.70;;;;;;;2.72;82.39;100866.28;103031;1280;22542;-58
2023/01/06 04:30:32;;;;;;;8.00;1.60;;;;;;;2.71;82.37;100864.72;103058;1296;22526;-56
2023/01/06 04:33:03;;;;;;;7.50;1.30;;;;;;;2.72;82.55;100867.23;102888;1286;22479;-58
2023/01/06 04:35:34;;;;;;;7.10;1.20;;;;;;;2.74;82.67;100859.33;103092;1282;22522;-58
2023/01/06 04:38:04;;;;;;;5.10;1.10;;;;;;;2.77;82.65;100852.30;103030;1305;22471;-58
2023/01/06 04:40:35;;;;;;;7.40;1.20;;;;;;;2.77;82.43;100852.84;102977;1281;22497;-57
2023/01/06 04:43:06;;;;;;;5.00;1.00;;;;;;;2.77;82.44;100856.94;103014;1281;24350;-61
2023/01/06 04:45:39;;;;;;;9.50;1.20;;;;;;;2.78;82.49;100857.87;103047;1305;22475;-59
2023/01/06 04:48:11;;;;;;;4.50;0.90;;;;;;;2.81;82.54;100863.19;103019;1305;22471;-57
2023/01/06 04:50:42;;;;;;;6.10;1.10;;;;;;;2.82;82.64;100872.94;103121;1281;22474;-59
2023/01/06 04:53:14;;;;;;;4.70;1.00;;;;;;;2.81;82.88;100876.59;103080;1281;22490;-59
2023/01/06 04:55:45;;;;;;;3.50;0.80;;;;;;;2.80;82.97;100875.25;103073;1297;24453;-58
2023/01/06 04:58:16;;;;;;;7.30;0.90;;;;;;;2.83;83.13;100876.73;103024;1298;24463;-58
2023/01/06 05:00:47;;;;;;;8.60;0.90;;;;;;;2.85;83.15;100877.01;102916;1290;24254;-59
2023/01/06 05:03:18;;;;;;;5.60;0.90;;;;;;;2.88;83.34;100875.39;102949;1305;25803;-57
2023/01/06 05:05:48;;;;;;;7.40;1.10;;;;;;;2.90;83.40;100878.20;103054;1304;22456;-57
2023/01/06 05:08:19;;;;;;;4.10;1.00;;;;;;;2.92;83.39;100884.02;103040;1296;24457;-58
2023/01/06 05:10:50;;;;;;;7.30;0.90;;;;;;;2.88;83.37;100883.19;103018;1303;24350;-59
2023/01/06 05:13:21;;;;;;;8.70;1.50;;;;;;;2.87;83.45;100881.63;103023;1281;22536;-59
2023/01/06 05:15:52;;;;;;;6.00;1.10;;;;;;;2.89;83.64;100880.19;103056;1305;22561;-59
2023/01/06 05:18:23;;;;;;;8.20;1.30;;;;;;;2.90;83.76;100879.55;102999;1281;22486;-59
2023/01/06 05:20:54;;;;;;;6.90;1.40;;;;;;;2.92;83.79;100880.94;102975;1305;25272;-57
2023/01/06 05:23:25;;;;;;;6.50;1.40;;;;;;;2.93;83.97;100876.13;103180;1273;22492;-56
2023/01/06 05:25:56;;;;;;;12.50;2.10;;;;;;;2.93;83.91;100877.61;103068;1273;24306;-57
2023/01/06 05:28:28;;;;;;;12.50;3.00;;;;;;;2.96;83.98;100880.75;103061;1300;24262;-58
2023/01/06 05:31:02;;;;;;;11.40;2.20;;;;;;;2.98;83.95;100876.06;103031;1297;24345;-59
2023/01/06 05:33:34;;;;;;;14.40;3.80;;;;;;;3.00;84.03;100862.33;103143;1291;24350;-58
2023/01/06 05:36:08;;;;;;;14.80;3.00;;;;;;;3.01;84.07;100867.83;103067;1297;24325;-60
2023/01/06 05:38:40;;;;;;;13.20;3.30;;;;;;;3.01;84.09;100866.33;103037;1305;22456;-60
2023/01/06 05:41:11;;;;;;;16.20;3.80;;;;;;;3.02;84.22;100873.65;103006;1281;26552;-58
2023/01/06 05:43:42;;;;;;;13.10;3.40;;;;;;;3.02;84.05;100865.77;103067;1305;25499;-60
2023/01/06 05:46:13;;;;;;;16.00;3.10;;;;;;;3.04;84.11;100858.02;102989;1297;24339;-59
2023/01/06 05:48:44;;;;;;;10.70;2.70;;;;;;;3.04;84.04;100853.45;103009;1281;25318;-59
2023/01/06 05:51:16;;;;;;;12.00;3.80;;;;;;;3.04;84.15;100849.27;102983;1305;24351;-55
2023/01/06 05:53:48;;;;;;;18.30;6.10;;;;;;;3.03;84.06;100852.12;103127;1305;22511;-58
2023/01/06 05:56:21;;;;;;;25.50;7.70;;;;;;;3.02;84.01;100860.56;103134;1274;22479;-59
2023/01/06 05:58:53;;;;;;;19.00;6.00;;;;;;;3.00;83.95;100861.86;102932;1290;25296;-58
2023/01/06 06:01:25;;;;;;;19.50;4.90;;;;;;;3.00;83.97;100870.67;102988;1281;25416;-58
2023/01/06 06:03:56;;;;;;;12.90;2.50;;;;;;;2.97;83.90;100880.02;103061;1305;22548;-59
2023/01/06 06:06:29;;;;;;;9.80;2.00;;;;;;;2.96;83.99;100874.91;102996;1305;24527;-58
2023/01/06 06:09:01;;;;;;;9.50;2.00;;;;;;;2.95;84.09;100874.76;103067;1305;24239;-59
2023/01/06 06:11:32;;;;;;;9.70;2.20;;;;;;;2.95;84.20;100878.39;103032;1290;22474;-59
2023/01/06 06:14:02;;;;;;;11.00;1.70;;;;;;;2.94;84.29;100875.25;102998;1298;23577;-60
2023/01/06 06:16:33;;;;;;;7.70;1.80;;;;;;;2.94;84.33;100876.75;103030;1281;24347;-58
2023/01/06 06:19:04;;;;;;;10.60;1.80;;;;;;;2.93;84.39;100877.70;103053;1290;26790;-58
2023/01/06 06:21:35;;;;;;;9.60;1.80;;;;;;;2.92;84.46;100881.56;103070;1291;25676;-59
2023/01/06 06:24:08;;;;;;;14.10;2.10;;;;;;;2.92;84.41;100883.70;103098;1287;22458;-57
2023/01/06 06:26:39;;;;;;;10.70;2.10;;;;;;;2.90;84.49;100888.36;102884;1305;22489;-60
2023/01/06 06:29:11;;;;;;;12.10;2.20;;;;;;;2.90;84.53;100891.28;103057;1281;24458;-59
2023/01/06 06:31:43;;;;;;;9.60;1.60;;;;;;;2.88;84.56;100890.36;103081;1291;22542;-58
2023/01/06 06:34:14;;;;;;;13.50;2.10;;;;;;;2.87;84.69;100889.75;102975;1283;24320;-59
2023/01/06 06:36:45;;;;;;;10.00;1.70;;;;;;;2.86;84.71;100890.30;103006;1305;22465;-60
2023/01/06 06:39:17;;;;;;;8.30;2.00;;;;;;;2.84;84.70;100887.81;103000;1281;24311;-59
2023/01/06 06:41:47;;;;;;;7.80;2.00;;;;;;;2.82;84.75;100883.10;103083;1305;23784;-58
2023/01/06 06:44:18;;;;;;;8.20;2.30;;;;;;;2.83;84.83;100878.30;103029;1280;22485;-59
2023/01/06 06:46:49;;;;;;;8.10;1.90;;;;;;;2.82;84.73;100881.45;102901;1277;24005;-58
2023/01/06 06:49:20;;;;;;;7.70;1.20;;;;;;;2.81;84.72;100882.80;102950;1305;22483;-59
2023/01/06 06:51:51;;;;;;;9.20;1.10;;;;;;;2.82;84.81;100877.19;102876;1306;22470;-60
2023/01/06 06:54:21;;;;;;;8.50;1.40;;;;;;;2.81;84.75;100880.28;102994;1281;25196;-60
2023/01/06 06:56:52;;;;;;;7.30;1.30;;;;;;;2.80;84.85;100885.65;102972;1281;25275;-61
2023/01/06 06:59:23;;;;;;;7.70;1.10;;;;;;;2.80;84.82;100892.19;102957;1297;24340;-61
2023/01/06 07:01:54;;;;;;;6.90;1.20;;;;;;;2.81;84.92;100889.34;102902;1280;24294;-59
2023/01/06 07:04:25;;;;;;;6.90;1.50;;;;;;;2.81;84.95;100892.02;102987;1281;24446;-60
2023/01/06 07:06:57;;;;;;;6.90;1.20;;;;;;;2.83;85.03;100888.45;103012;1305;26641;-59
2023/01/06 07:09:29;;;;;;;7.10;1.50;;;;;;;2.82;84.93;100885.78;102973;1294;22442;-60
2023/01/06 07:12:00;;;;;;;9.90;1.30;;;;;;;2.81;84.97;100888.39;103024;1282;25712;-59
2023/01/06 07:14:31;;;;;;;8.30;1.40;;;;;;;2.80;84.93;100891.64;103035;1280;23052;-59
2023/01/06 07:17:03;;;;;;;6.00;1.20;;;;;;;2.78;84.92;100894.04;102998;1305;22462;-58
2023/01/06 07:19:33;;;;;;;5.50;1.10;;;;;;;2.78;85.05;100896.39;103110;1305;24294;-59
2023/01/06 07:22:04;;;;;;;9.10;1.40;;;;;;;2.77;84.94;100897.81;103003;1282;22510;-58
2023/01/06 07:24:35;;;;;;;10.40;1.90;;;;;;;2.78;85.21;100893.47;103018;1305;25796;-59
2023/01/06 07:27:06;;;;;;;10.70;2.10;;;;;;;2.79;85.26;100895.27;102965;1281;23216;-59
2023/01/06 07:29:37;;;;;;;11.90;1.80;;;;;;;2.79;85.27;100901.10;103003;1280;22480;-59
2023/01/06 07:32:09;;;;;;;7.90;1.40;;;;;;;2.80;85.31;100899.67;102979;1306;24311;-59
2023/01/06 07:34:40;;;;;;;9.80;2.30;;;;;;;2.83;85.44;100890.98;103170;1280;24271;-59
2023/01/06 07:37:11;;;;;;;14.70;2.30;;;;;;;2.83;85.28;100887.58;102955;1286;22800;-58
2023/01/06 07:39:43;;;;;;;17.40;2.10;;;;;;;2.82;85.32;100889.01;103035;1281;22468;-59
2023/01/06 07:42:14;;;;;;;10.50;2.60;;;;;;;2.84;85.40;100888.61;102980;1303;23181;-59
2023/01/06 07:44:45;;;;;;;12.30;3.20;;;;;;;2.84;85.52;100891.74;103025;1281;22605;-60
2023/01/06 07:47:16;;;;;;;15.80;4.70;;;;;;;2.87;85.49;100888.23;102958;1298;24525;-59
2023/01/06 07:49:47;;;;;;;14.90;4.30;;;;;;;2.88;85.46;100883.50;103216;1281;22482;-60
2023/01/06 07:52:18;;;;;;;18.00;4.90;;;;;;;2.90;85.64;100878.84;102970;1282;26216;-59
2023/01/06 07:54:49;;;;;;;13.10;3.40;;;;;;;2.91;85.54;100873.70;102979;1305;22464;-61
2023/01/06 07:57:20;;;;;;;9.30;2.80;;;;;;;2.93;85.64;100869.02;102969;1305;24415;-58
2023/01/06 07:59:50;;;;;;;13.40;2.50;;;;;;;2.95;85.73;100859.48;103072;1303;22469;-62
2023/01/06 08:02:22;;;;;;;13.60;2.30;;;;;;;2.95;85.59;100854.83;102988;1284;22598;-61
2023/01/06 08:04:53;;;;;;;12.40;2.80;;;;;;;2.96;85.86;100853.24;102966;1307;22552;-59
2023/01/06 08:07:24;;;;;;;11.20;3.20;;;;;;;2.96;85.73;100855.38;102953;1305;26633;-61
2023/01/06 08:09:55;;;;;;;12.00;3.00;;;;;;;2.96;85.86;100857.51;103035;1305;22549;-59
2023/01/06 08:12:26;;;;;;;12.60;3.00;;;;;;;2.96;85.88;100856.23;103035;1305;22474;-59
2023/01/06 08:14:57;;;;;;;11.30;2.80;;;;;;;2.97;86.02;100851.57;102872;1274;22483;-60
2023/01/06 08:17:27;;;;;;;19.20;4.80;;;;;;;2.98;85.93;100844.79;102972;1281;22578;-61
2023/01/06 08:19:58;;;;;;;20.40;5.80;;;;;;;2.99;85.95;100840.52;102967;1306;22464;-61
2023/01/06 08:22:29;;;;;;;20.10;6.30;;;;;;;3.01;86.10;100840.23;102935;1283;23229;-61
2023/01/06 08:25:00;;;;;;;18.40;3.70;;;;;;;3.03;86.12;100844.16;102993;1282;24268;-60
2023/01/06 08:27:31;;;;;;;17.30;4.40;;;;;;;3.06;86.11;100847.28;102982;1293;25274;-60
2023/01/06 08:30:02;;;;;;;11.90;3.20;;;;;;;3.10;86.13;100845.41;103121;1281;24307;-60
2023/01/06 08:32:33;;;;;;;16.60;4.20;;;;;;;3.15;86.11;100849.30;103019;1281;22463;-62
2023/01/06 08:35:04;;;;;;;9.00;1.90;;;;;;;3.18;86.03;100850.67;103045;1281;24557;-59
2023/01/06 08:37:36;;;;;;;11.10;2.00;;;;;;;3.20;85.93;100843.86;103068;1297;24351;-61
2023/01/06 08:40:09;;;;;;;9.30;2.60;;;;;;;3.21;85.82;100840.54;103127;1305;22476;-59
2023/01/06 08:42:39;;;;;;;11.00;2.10;;;;;;;3.21;85.74;100842.35;102982;1281;23985;-59
2023/01/06 08:45:11;;;;;;;12.50;2.00;;;;;;;3.22;85.77;100838.70;102954;1305;24425;-60
2023/01/06 08:47:43;;;;;;;20.90;6.00;;;;;;;3.24;85.85;100837.50;103082;1291;22466;-60
2023/01/06 08:50:13;;;;;;;15.40;4.00;;;;;;;3.23;85.74;100830.49;102901;1306;24325;-60
2023/01/06 08:52:44;;;;;;;15.90;3.40;;;;;;;3.22;85.76;100822.70;102951;1281;25381;-59
2023/01/06 08:55:15;;;;;;;10.60;2.90;;;;;;;3.24;85.98;100821.27;102980;1281;22469;-60
2023/01/06 08:57:46;;;;;;;11.50;3.10;;;;;;;3.26;86.01;100817.92;102991;1281;22605;-59
2023/01/06 09:00:19;;;;;;;15.40;3.90;;;;;;;3.26;85.91;100818.15;102948;1281;25588;-61
2023/01/06 09:02:50;;;;;;;14.00;3.50;;;;;;;3.28;86.03;100817.11;103125;1276;24434;-60
2023/01/06 09:05:21;;;;;;;15.40;3.10;;;;;;;3.32;85.88;100820.84;102907;1281;25357;-63
2023/01/06 09:07:53;;;;;;;8.90;2.10;;;;;;;3.34;85.85;100821.05;102756;1273;24435;-60
2023/01/06 09:10:24;;;;;;;9.70;2.10;;;;;;;3.35;85.93;100821.42;103048;1288;24412;-60
2023/01/06 09:12:55;;;;;;;10.50;2.50;;;;;;;3.39;85.94;100825.08;103201;1305;22462;-59
2023/01/06 09:15:26;;;;;;;13.10;3.20;;;;;;;3.39;85.90;100831.54;102921;1297;24330;-60
2023/01/06 09:17:57;;;;;;;11.50;3.00;;;;;;;3.41;85.98;100828.99;103104;1306;22464;-60
2023/01/06 09:20:28;;;;;;;11.80;2.90;;;;;;;3.43;86.14;100832.59;103108;1281;24768;-59
2023/01/06 09:23:00;;;;;;;14.90;3.20;;;;;;;3.47;86.22;100830.25;102945;1282;22790;-59
2023/01/06 09:25:31;;;;;;;10.90;2.60;;;;;;;3.51;86.10;100828.92;102923;1282;24331;-58
2023/01/06 09:28:01;;;;;;;13.00;2.60;;;;;;;3.55;86.13;100825.00;102949;1291;24340;-60
2023/01/06 09:30:32;;;;;;;12.10;3.20;;;;;;;3.58;86.06;100823.45;102975;1282;23130;-58
2023/01/06 09:33:04;;;;;;;10.90;2.70;;;;;;;3.61;86.08;100814.25;102907;1281;24479;-59
2023/01/06 09:35:34;;;;;;;10.10;2.10;;;;;;;3.64;86.14;100811.84;103250;1281;22455;-59
2023/01/06 09:38:05;;;;;;;9.50;2.00;;;;;;;3.67;86.16;100815.11;102742;1282;25729;-59
2023/01/06 09:40:48;;;;;;;10.50;2.10;;;;;;;3.69;86.11;100817.84;102854;1281;24438;-59
2023/01/06 09:43:31;;;;;;;8.50;1.70;;;;;;;3.73;86.27;100813.04;102861;1283;22538;-60
2023/01/06 09:46:05;;;;;;;10.50;1.50;;;;;;;3.77;86.26;100798.70;102899;1297;24296;-60
2023/01/06 09:48:42;;;;;;;15.50;1.90;;;;;;;3.80;86.26;100799.43;102836;1306;23339;-61
2023/01/06 09:51:20;;;;;;;5.60;1.30;;;;;;;3.84;86.19;100805.98;102879;1281;22605;-59
2023/01/06 09:53:55;;;;;;;10.50;1.70;;;;;;;3.87;86.18;100802.86;102901;1281;24343;-61
2023/01/06 09:56:27;;;;;;;12.60;1.60;;;;;;;3.92;86.26;100801.91;103020;1281;25677;-59
2023/01/06 09:59:07;;;;;;;9.70;2.00;;;;;;;3.97;86.05;100794.33;103033;1281;22482;-59
2023/01/06 10:01:44;;;;;;;35.40;8.90;;;;;;;4.00;85.71;100793.09;102967;1280;22507;-59
2023/01/06 10:04:21;;;;;;;36.10;8.40;;;;;;;4.05;85.74;100796.48;103226;1282;22471;-59
2023/01/06 10:07:02;;;;;;;39.50;9.80;;;;;;;4.08;85.59;100801.24;103074;1304;24703;-60
2023/01/06 10:09:38;;;;;;;26.40;8.40;;;;;;;4.12;85.51;100796.14;103103;1282;25356;-60
2023/01/06 10:12:22;;;;;;;12.40;2.80;;;;;;;4.15;85.33;100793.63;102858;1290;24339;-61
2023/01/06 10:15:02;;;;;;;10.10;2.10;;;;;;;4.17;85.25;100793.19;102942;1280;22487;-59
2023/01/06 10:17:54;;;;;;;11.20;2.70;;;;;;;4.23;85.52;100788.90;102966;1284;22472;-59
2023/01/06 10:20:46;;;;;;;10.60;1.90;;;;;;;4.29;85.67;100781.67;102840;1287;22479;-60
2023/01/06 10:23:32;;;;;;;10.90;2.30;;;;;;;4.35;85.51;100767.52;102969;1282;22468;-59
2023/01/06 10:26:11;;;;;;;15.70;2.30;;;;;;;4.39;85.31;100757.32;103046;1280;25470;-60
2023/01/06 10:28:47;;;;;;;7.10;1.90;;;;;;;4.44;85.34;100739.13;102982;1282;25123;-60
2023/01/06 10:31:20;;;;;;;7.70;1.90;;;;;;;4.48;85.10;100730.06;102972;1289;22554;-59
2023/01/06 10:33:53;;;;;;;7.90;1.80;;;;;;;4.52;85.26;100725.40;102897;1285;22514;-62
2023/01/06 10:36:32;;;;;;;12.20;2.20;;;;;;;4.57;85.33;100727.09;103181;1287;22459;-60
2023/01/06 10:39:07;;;;;;;7.60;2.10;;;;;;;4.62;85.07;100724.78;102952;1291;24302;-59
2023/01/06 10:41:50;;;;;;;11.50;2.70;;;;;;;4.67;84.88;100729.19;102977;1305;25324;-60
2023/01/06 10:44:22;;;;;;;11.00;2.60;;;;;;;4.70;84.94;100729.04;102976;1281;22539;-60
2023/01/06 10:46:52;;;;;;;12.10;2.10;;;;;;;4.72;84.94;100718.79;103301;1291;22461;-59
2023/01/06 10:49:24;;;;;;;11.60;2.50;;;;;;;4.77;84.99;100716.25;102874;1286;22476;-61
2023/01/06 10:52:01;;;;;;;10.10;2.40;;;;;;;4.82;85.08;100714.09;103118;1280;22621;-60
2023/01/06 10:54:37;;;;;;;13.20;2.70;;;;;;;4.89;85.22;100717.80;103026;1302;25323;-59
2023/01/06 10:57:16;;;;;;;11.40;2.30;;;;;;;4.95;85.20;100702.72;102894;1281;23977;-59
2023/01/06 11:00:14;;;;;;;10.60;2.40;;;;;;;5.01;85.05;100699.73;103077;1288;22466;-62
2023/01/06 11:02:46;;;;;;;6.10;1.70;;;;;;;5.08;85.23;100688.66;102713;1281;22517;-61
2023/01/06 11:05:21;;;;;;;9.30;1.80;;;;;;;5.14;85.05;100685.91;103152;1300;22459;-61
2023/01/06 11:07:56;;;;;;;13.50;3.40;;;;;;;5.19;85.05;100681.14;102910;1287;24454;-61
2023/01/06 11:10:34;;;;;;;12.20;2.10;;;;;;;5.25;85.14;100676.80;102811;1296;23961;-60
2023/01/06 11:13:07;;;;;;;15.00;2.60;;;;;;;5.32;85.01;100665.95;102941;1297;24271;-60
2023/01/06 11:15:41;;;;;;;14.40;1.60;;;;;;;5.35;84.69;100644.91;102845;1309;24325;-60
2023/01/06 11:18:23;;;;;;;12.60;2.70;;;;;;;5.37;84.70;100639.73;102981;1283;22474;-60
2023/01/06 11:21:09;;;;;;;12.30;3.10;;;;;;;5.38;84.75;100630.27;102912;1280;22467;-61
2023/01/06 11:23:42;;;;;;;15.30;3.40;;;;;;;5.43;84.86;100629.67;102935;1302;25264;-61
2023/01/06 11:26:20;;;;;;;13.40;2.90;;;;;;;5.48;85.12;100632.39;103063;1280;25278;-60
2023/01/06 11:28:53;;;;;;;17.50;3.40;;;;;;;5.55;85.50;100641.14;103036;1287;22482;-61
2023/01/06 11:31:26;;;;;;;10.70;2.20;;;;;;;5.62;85.41;100631.95;102866;1280;24310;-60
2023/01/06 11:34:00;;;;;;;12.00;2.40;;;;;;;5.66;85.13;100628.20;102803;1305;22512;-60
2023/01/06 11:36:33;;;;;;;12.10;3.10;;;;;;;5.68;84.96;100623.25;103445;1280;32616;-59
2023/01/06 11:39:13;;;;;;;14.10;3.80;;;;;;;5.69;84.95;100616.23;102957;1296;22508;-60
2023/01/06 11:41:48;;;;;;;17.80;4.70;;;;;;;5.72;84.97;100605.16;103054;1280;22503;-60
2023/01/06 11:44:23;;;;;;;17.60;5.30;;;;;;;5.75;85.03;100606.42;103013;1280;22459;-60
2023/01/06 11:46:59;;;;;;;17.90;4.80;;;;;;;5.79;85.26;100610.35;102892;1283;23195;-60
2023/01/06 11:49:34;;;;;;;21.30;4.90;;;;;;;5.82;85.51;100604.42;102923;1281;22472;-61
2023/01/06 11:52:08;;;;;;;17.30;3.80;;;;;;;5.84;85.50;100593.23;102826;1307;22466;-63
2023/01/06 11:54:40;;;;;;;18.10;4.60;;;;;;;5.81;85.41;100586.56;102995;1281;22460;-60